createdAt,value
2022-08-16T00:01:40.595Z,100569.41
2022-08-16T00:04:10.272Z,100569.47
2022-08-16T00:06:39.446Z,100568.59
2022-08-16T00:09:10.889Z,100566.94
2022-08-16T00:11:40.960Z,100567.06
2022-08-16T00:14:15.161Z,100559.19
2022-08-16T00:17:00.907Z,100562.00
2022-08-16T00:19:41.572Z,100559.38
2022-08-16T00:22:13.499Z,100555.97
2022-08-16T00:24:46.993Z,100556.03
2022-08-16T00:27:19.736Z,100556.13
2022-08-16T00:30:08.874Z,100558.00
2022-08-16T00:32:43.178Z,100565.19
2022-08-16T00:35:17.574Z,100557.25
2022-08-16T00:37:58.895Z,100565.34
2022-08-16T00:40:36.791Z,100561.88
2022-08-16T00:43:19.345Z,100557.44
2022-08-16T00:46:22.333Z,100559.19
2022-08-16T00:49:02.434Z,100554.78
2022-08-16T00:51:31.372Z,100562.81
2022-08-16T00:53:59.831Z,100566.34
2022-08-16T00:56:57.988Z,100568.16
2022-08-16T00:59:23.844Z,100580.69
2022-08-16T01:01:53.350Z,100584.38
2022-08-16T01:04:29.957Z,100576.41
2022-08-16T01:07:02.851Z,100572.84
2022-08-16T01:09:37.224Z,100565.81
2022-08-16T01:12:10.872Z,100564.97
2022-08-16T01:14:58.336Z,100568.63
2022-08-16T01:17:36.693Z,100557.91
2022-08-16T01:20:24.207Z,100558.88
2022-08-16T01:23:08.837Z,100566.03
2022-08-16T01:25:44.682Z,100567.03
2022-08-16T01:28:30.847Z,100566.16
2022-08-16T01:31:00.665Z,100559.06
2022-08-16T01:33:33.097Z,100550.09
2022-08-16T01:36:11.646Z,100551.97
2022-08-16T01:38:46.921Z,100558.25
2022-08-16T01:41:29.944Z,100556.53
2022-08-16T01:44:01.031Z,100560.13
2022-08-16T01:46:46.803Z,100555.72
2022-08-16T01:50:40.764Z,100551.28
2022-08-16T01:52:31.639Z,100538.91
2022-08-16T01:55:19.098Z,100547.88
2022-08-16T01:57:53.678Z,100550.56
2022-08-16T02:00:28.831Z,100547.88
2022-08-16T02:02:59.958Z,100546.16
2022-08-16T02:05:30.586Z,100543.50
2022-08-16T02:08:00.811Z,100544.41
2022-08-16T02:10:31.657Z,100548.00
2022-08-16T02:13:07.264Z,100542.63
2022-08-16T02:15:42.291Z,100542.75
2022-08-16T02:18:12.803Z,100537.53
2022-08-16T02:20:47.523Z,100536.72
2022-08-16T02:23:18.237Z,100535.94
2022-08-16T02:25:52.899Z,100541.34
2022-08-16T02:28:26.913Z,100534.31
2022-08-16T02:30:58.356Z,100538.88
2022-08-16T02:33:43.897Z,100552.31
2022-08-16T02:36:47.107Z,100538.13
2022-08-16T02:39:22.974Z,100549.78
2022-08-16T02:41:55.405Z,100547.22
2022-08-16T02:44:28.418Z,100555.31
2022-08-16T02:46:58.212Z,100554.56
2022-08-16T02:49:58.115Z,100563.56
2022-08-16T02:52:24.827Z,100557.44
2022-08-16T02:55:01.534Z,100554.91
2022-08-16T02:57:31.080Z,100560.31
2022-08-16T03:00:33.648Z,100551.47
2022-08-16T03:02:59.386Z,100547.13
2022-08-16T03:05:30.889Z,100543.72
2022-08-16T03:08:03.230Z,100563.34
2022-08-16T03:10:38.039Z,100551.78
2022-08-16T03:13:12.656Z,100558.94
2022-08-16T03:15:45.103Z,100555.41
2022-08-16T03:18:34.633Z,100560.75
2022-08-16T03:21:10.228Z,100552.78
2022-08-16T03:23:43.081Z,100556.34
2022-08-16T03:26:13.788Z,100549.97
2022-08-16T03:28:43.824Z,100554.41
2022-08-16T03:31:12.570Z,100560.69
2022-08-16T03:33:44.138Z,100561.56
2022-08-16T03:36:30.091Z,100548.25
2022-08-16T03:39:03.593Z,100545.56
2022-08-16T03:41:49.639Z,100541.16
2022-08-16T03:44:43.228Z,100549.16
2022-08-16T03:47:10.447Z,100547.44
2022-08-16T03:49:40.994Z,100546.66
2022-08-16T03:52:13.453Z,100547.56
2022-08-16T03:54:53.598Z,100549.44
2022-08-16T03:57:31.773Z,100553.06
2022-08-16T04:00:36.314Z,100551.31
2022-08-16T04:03:09.488Z,100549.53
2022-08-16T04:05:46.748Z,100556.75
2022-08-16T04:08:22.990Z,100547.94
2022-08-16T04:10:57.803Z,100559.63
2022-08-16T04:14:01.515Z,100549.94
2022-08-16T04:16:27.347Z,100554.47
2022-08-16T04:19:05.486Z,100545.63
2022-08-16T04:21:47.179Z,100551.94
2022-08-16T04:24:21.967Z,100548.44
2022-08-16T04:26:57.981Z,100549.41
2022-08-16T04:29:27.904Z,100554.91
2022-08-16T04:32:13.762Z,100547.00
2022-08-16T04:34:45.410Z,100539.03
2022-08-16T04:37:14.401Z,100546.19
2022-08-16T04:39:55.665Z,100546.19
2022-08-16T04:42:29.634Z,100549.78
2022-08-16T04:45:02.047Z,100550.66
2022-08-16T04:47:35.934Z,100558.69
2022-08-16T04:50:14.736Z,100555.06
2022-08-16T04:52:59.799Z,100562.06
2022-08-16T04:55:38.222Z,100566.22
2022-08-16T04:58:41.357Z,100567.97
2022-08-16T05:01:00.367Z,100571.56
2022-08-16T05:03:32.646Z,100573.38
2022-08-16T05:06:05.311Z,100576.91
2022-08-16T05:08:37.964Z,100573.38
2022-08-16T05:11:22.902Z,100576.91
2022-08-16T05:13:51.904Z,100587.53
2022-08-16T05:16:29.916Z,100589.31
2022-08-16T05:19:11.701Z,100587.50
2022-08-16T05:21:56.624Z,100582.94
2022-08-16T05:24:30.287Z,100584.56
2022-08-16T05:26:59.466Z,100589.66
2022-08-16T05:30:00.013Z,100597.47
2022-08-16T05:32:33.733Z,100592.66
2022-08-16T05:35:11.464Z,100590.63
2022-08-16T05:37:47.214Z,100590.38
2022-08-16T05:40:18.612Z,100591.97
2022-08-16T05:42:49.373Z,100598.19
2022-08-16T05:45:21.458Z,100590.16
2022-08-16T05:48:00.111Z,100587.47
2022-08-16T05:50:41.751Z,100582.13
2022-08-16T05:53:11.352Z,100583.88
2022-08-16T05:55:52.890Z,100581.91
2022-08-16T05:58:31.775Z,100585.13
2022-08-16T06:01:06.203Z,100587.41
2022-08-16T06:03:37.811Z,100583.34
2022-08-16T06:06:15.164Z,100590.53
2022-08-16T06:08:59.799Z,100593.00
2022-08-16T06:11:29.489Z,100600.50
2022-08-16T06:14:01.977Z,100598.69
2022-08-16T06:16:39.530Z,100600.84
2022-08-16T06:19:08.206Z,100602.44
2022-08-16T06:21:42.392Z,100604.19
2022-08-16T06:24:52.499Z,100606.81
2022-08-16T06:26:59.734Z,100612.88
2022-08-16T06:29:33.868Z,100607.22
2022-08-16T06:32:02.729Z,100612.28
2022-08-16T06:34:54.981Z,100613.88
2022-08-16T06:37:21.342Z,100606.47
2022-08-16T06:39:50.564Z,100612.13
2022-08-16T06:42:55.330Z,100614.94
2022-08-16T06:45:48.503Z,100607.63
2022-08-16T06:48:32.163Z,100615.94
2022-08-16T06:51:05.633Z,100614.75
2022-08-16T06:53:36.852Z,100622.59
2022-08-16T06:56:14.878Z,100626.59
2022-08-16T06:59:12.258Z,100625.47
2022-08-16T07:01:53.696Z,100625.13
2022-08-16T07:04:31.601Z,100630.56
2022-08-16T07:07:05.935Z,100629.06
2022-08-16T07:09:34.794Z,100628.09
2022-08-16T07:12:05.476Z,100626.91
2022-08-16T07:14:36.825Z,100631.13
2022-08-16T07:17:08.191Z,100626.25
2022-08-16T07:20:28.979Z,100629.38
2022-08-16T07:22:39.706Z,100624.31
2022-08-16T07:25:16.996Z,100629.25
2022-08-16T07:27:47.043Z,100633.38
2022-08-16T07:30:38.204Z,100626.88
2022-08-16T07:33:51.880Z,100629.41
2022-08-16T07:36:11.854Z,100633.56
2022-08-16T07:38:45.583Z,100621.69
2022-08-16T07:41:16.228Z,100627.84
2022-08-16T07:43:49.945Z,100620.47
2022-08-16T07:46:37.590Z,100621.34
2022-08-16T07:49:19.082Z,100623.88
2022-08-16T07:51:54.398Z,100627.19
2022-08-16T07:54:37.873Z,100622.34
2022-08-16T07:57:12.415Z,100636.31
2022-08-16T07:59:46.416Z,100631.63
2022-08-16T08:02:20.011Z,100632.25
2022-08-16T08:04:57.643Z,100634.50
2022-08-16T08:07:29.225Z,100643.19
2022-08-16T08:10:05.793Z,100641.00
2022-08-16T08:12:40.358Z,100636.22
2022-08-16T08:15:14.053Z,100643.94
2022-08-16T08:17:46.706Z,100638.69
2022-08-16T08:20:28.114Z,100648.22
2022-08-16T08:23:00.868Z,100643.41
2022-08-16T08:25:52.111Z,100644.81
2022-08-16T08:28:25.596Z,100641.97
2022-08-16T08:31:03.747Z,100652.09
2022-08-16T08:33:37.184Z,100649.84
2022-08-16T08:36:08.455Z,100653.88
2022-08-16T08:38:44.083Z,100652.94
2022-08-16T08:41:23.596Z,100657.28
2022-08-16T08:43:57.686Z,100658.84
2022-08-16T08:46:28.360Z,100668.56
2022-08-16T08:49:05.491Z,100661.09
2022-08-16T08:51:42.780Z,100663.41
2022-08-16T08:54:20.721Z,100664.09
2022-08-16T08:56:54.521Z,100662.94
2022-08-16T08:59:40.933Z,100662.66
2022-08-16T09:02:14.906Z,100667.47
2022-08-16T09:04:52.782Z,100666.19
2022-08-16T09:07:23.600Z,100674.00
2022-08-16T09:10:06.465Z,100671.00
2022-08-16T09:12:39.546Z,100665.22
2022-08-16T09:15:13.542Z,100662.38
2022-08-16T09:17:53.630Z,100672.09
2022-08-16T09:20:31.797Z,100669.88
2022-08-16T09:23:03.411Z,100675.66
2022-08-16T09:25:37.273Z,100670.00
2022-08-16T09:28:10.491Z,100672.56
2022-08-16T09:30:50.171Z,100662.34
2022-08-16T09:33:20.048Z,100668.03
2022-08-16T09:35:53.485Z,100668.34
2022-08-16T09:38:31.912Z,100671.22
2022-08-16T09:41:03.355Z,100670.72
2022-08-16T09:43:58.522Z,100671.88
2022-08-16T09:46:49.182Z,100669.63
2022-08-16T09:49:12.518Z,100678.00
2022-08-16T09:51:41.045Z,100671.88
2022-08-16T09:54:17.095Z,100672.06
2022-08-16T09:56:52.208Z,100674.25
2022-08-16T09:59:23.583Z,100682.25
2022-08-16T10:01:54.914Z,100666.69
2022-08-16T10:04:30.886Z,100674.59
2022-08-16T10:07:14.746Z,100671.47
2022-08-16T10:09:55.608Z,100676.03
2022-08-16T10:12:56.044Z,100671.09
2022-08-16T10:15:30.128Z,100673.59
2022-08-16T10:18:02.493Z,100687.66
2022-08-16T10:20:49.899Z,100682.69
2022-08-16T10:23:18.321Z,100686.81
2022-08-16T10:27:19.578Z,100683.59
2022-08-16T10:28:42.040Z,100682.06
2022-08-16T10:31:14.641Z,100678.84
2022-08-16T10:34:01.503Z,100680.03
2022-08-16T10:36:39.346Z,100690.19
2022-08-16T10:39:08.538Z,100680.88
2022-08-16T10:41:37.154Z,100687.81
2022-08-16T10:44:09.631Z,100691.06
2022-08-16T10:46:41.508Z,100684.78
2022-08-16T10:49:12.127Z,100692.56
2022-08-16T10:52:01.317Z,100695.84
2022-08-16T10:54:30.572Z,100699.00
2022-08-16T10:57:04.151Z,100695.81
2022-08-16T10:59:45.811Z,100704.50
2022-08-16T11:02:58.871Z,100701.66
2022-08-16T11:05:15.592Z,100706.66
2022-08-16T11:07:52.534Z,100703.47
2022-08-16T11:19:12.200Z,100714.31
2022-08-16T11:24:42.903Z,100716.44
2022-08-16T11:27:20.284Z,100719.31
2022-08-16T11:29:51.968Z,100724.94
2022-08-16T11:32:22.684Z,100721.00
2022-08-16T11:35:10.713Z,100724.25
2022-08-16T11:38:23.296Z,100727.25
2022-08-16T11:40:53.386Z,100732.09
2022-08-16T11:43:28.352Z,100731.66
2022-08-16T11:46:01.430Z,100741.66
2022-08-16T11:48:48.967Z,100739.34
2022-08-16T11:51:17.776Z,100740.22
2022-08-16T11:53:46.441Z,100753.47
2022-08-16T11:56:16.074Z,100745.53
2022-08-16T11:58:51.667Z,100746.81
2022-08-16T12:01:29.890Z,100747.84
2022-08-16T12:04:13.429Z,100748.19
2022-08-16T12:06:43.751Z,100750.91
2022-08-16T12:09:14.356Z,100753.38
2022-08-16T12:11:45.133Z,100756.22
2022-08-16T12:14:23.290Z,100757.88
2022-08-16T12:16:57.091Z,100751.69
2022-08-16T12:19:33.604Z,100749.47
2022-08-16T12:22:19.422Z,100766.25
2022-08-16T12:24:51.926Z,100746.53
2022-08-16T12:27:26.111Z,100751.25
2022-08-16T12:29:58.292Z,100760.03
2022-08-16T12:32:39.407Z,100756.31
2022-08-16T12:35:15.076Z,100758.53
2022-08-16T12:37:47.331Z,100758.13
2022-08-16T12:40:24.805Z,100763.88
2022-08-16T12:42:57.570Z,100765.44
2022-08-16T12:45:31.464Z,100761.66
2022-08-16T12:48:35.231Z,100766.50
2022-08-16T12:51:19.417Z,100750.34
2022-08-16T12:53:54.048Z,100759.38
2022-08-16T12:56:26.248Z,100757.53
2022-08-16T12:58:56.929Z,100764.31
2022-08-16T13:01:30.464Z,100760.38
2022-08-16T13:04:12.540Z,100765.78
2022-08-16T13:06:50.209Z,100772.31
2022-08-16T13:09:26.419Z,100766.03
2022-08-16T13:12:09.737Z,100773.56
2022-08-16T13:14:42.089Z,100773.19
2022-08-16T13:17:19.114Z,100775.81
2022-08-16T13:20:09.428Z,100771.84
2022-08-16T13:22:44.714Z,100781.97
2022-08-16T13:25:20.947Z,100774.31
2022-08-16T13:28:14.854Z,100791.91
2022-08-16T13:30:55.746Z,100793.28
2022-08-16T13:33:31.748Z,100791.16
2022-08-16T13:36:01.361Z,100793.50
2022-08-16T13:38:37.594Z,100789.72
2022-08-16T13:41:09.803Z,100789.78
2022-08-16T13:43:42.349Z,100786.53
2022-08-16T13:46:10.958Z,100784.56
2022-08-16T13:48:44.926Z,100791.19
2022-08-16T13:51:19.678Z,100785.06
2022-08-16T13:53:59.987Z,100792.28
2022-08-16T13:56:37.875Z,100790.34
2022-08-16T13:59:14.377Z,100791.28
2022-08-16T14:01:55.661Z,100797.50
2022-08-16T14:04:31.179Z,100795.53
2022-08-16T14:07:02.428Z,100795.88
2022-08-16T14:09:33.705Z,100798.22
2022-08-16T14:12:09.745Z,100799.34
2022-08-16T14:14:47.023Z,100798.66
2022-08-16T14:17:16.480Z,100799.06
2022-08-16T14:19:46.235Z,100794.59
2022-08-16T14:22:30.778Z,100794.63
2022-08-16T14:25:10.197Z,100792.97
2022-08-16T14:27:42.258Z,100793.06
2022-08-16T14:30:15.499Z,100789.22
2022-08-16T14:32:46.598Z,100795.56
2022-08-16T14:35:36.663Z,100796.00
2022-08-16T14:38:11.339Z,100805.53
2022-08-16T14:40:52.841Z,100810.03
2022-08-16T14:43:29.828Z,100799.94
2022-08-16T14:46:00.300Z,100816.25
2022-08-16T14:48:30.688Z,100809.53
2022-08-16T14:50:59.476Z,100814.63
2022-08-16T14:53:31.308Z,100807.69
2022-08-16T14:56:03.442Z,100824.28
2022-08-16T14:58:36.671Z,100825.94
2022-08-16T15:01:10.023Z,100823.75
2022-08-16T15:03:44.534Z,100828.94
2022-08-16T15:06:14.534Z,100832.00
2022-08-16T15:08:45.879Z,100827.63
2022-08-16T15:11:14.599Z,100834.66
2022-08-16T15:13:43.201Z,100833.44
2022-08-16T15:16:12.007Z,100839.28
2022-08-16T15:18:40.569Z,100842.19
2022-08-16T15:21:09.623Z,100843.94
2022-08-16T15:23:40.462Z,100849.53
2022-08-16T15:26:18.549Z,100843.47
2022-08-16T15:29:00.820Z,100844.75
2022-08-16T15:31:29.268Z,100847.97
2022-08-16T15:33:58.315Z,100848.34
2022-08-16T15:36:26.850Z,100839.66
2022-08-16T15:39:06.790Z,100841.28
2022-08-16T15:41:47.795Z,100841.19
2022-08-16T15:44:23.154Z,100837.81
2022-08-16T15:46:58.845Z,100839.75
2022-08-16T15:49:45.734Z,100841.81
2022-08-16T15:52:31.227Z,100840.28
2022-08-16T15:55:13.385Z,100845.69
2022-08-16T15:57:52.715Z,100850.91
2022-08-16T16:00:22.301Z,100847.03
2022-08-16T16:03:10.538Z,100848.72
2022-08-16T16:05:42.442Z,100847.22
2022-08-16T16:08:12.970Z,100851.94
2022-08-16T16:10:47.662Z,100860.19
2022-08-16T16:13:23.757Z,100855.16
2022-08-16T16:15:55.456Z,100855.38
2022-08-16T16:18:26.000Z,100853.84
2022-08-16T16:20:57.815Z,100860.41
2022-08-16T16:23:32.834Z,100856.25
2022-08-16T16:26:05.733Z,100857.66
2022-08-16T16:29:06.291Z,100856.50
2022-08-16T16:31:26.538Z,100860.25
2022-08-16T16:33:56.254Z,100876.47
2022-08-16T16:36:29.406Z,100871.81
2022-08-16T16:38:58.521Z,100878.56
2022-08-16T16:41:29.044Z,100889.16
2022-08-16T16:44:01.100Z,100873.25
2022-08-16T16:46:41.246Z,100885.00
2022-08-16T16:49:14.846Z,100887.00
2022-08-16T16:51:47.077Z,100884.84
2022-08-16T16:54:27.949Z,100884.44
2022-08-16T16:56:58.349Z,100882.19
2022-08-16T16:59:28.483Z,100896.31
2022-08-16T17:02:41.385Z,100893.66
2022-08-16T17:04:48.806Z,100897.94
2022-08-16T17:07:17.712Z,100902.28
2022-08-16T17:09:53.606Z,100911.91
2022-08-16T17:12:47.308Z,100908.94
2022-08-16T17:15:14.985Z,100916.75
2022-08-16T17:18:00.623Z,100918.06
2022-08-16T17:20:30.539Z,100912.06
2022-08-16T17:22:58.892Z,100920.16
2022-08-16T17:25:36.243Z,100923.09
2022-08-16T17:28:59.982Z,100924.31
2022-08-16T17:30:58.535Z,100931.75
2022-08-16T17:33:28.451Z,100933.78
2022-08-16T17:36:08.766Z,100947.53
2022-08-16T17:38:43.736Z,100959.31
2022-08-16T17:41:13.964Z,100956.09
2022-08-16T17:43:44.446Z,100949.28
2022-08-16T17:46:51.314Z,100953.09
2022-08-16T17:49:04.720Z,100958.63
2022-08-16T17:51:34.332Z,100956.25
2022-08-16T17:54:03.605Z,100955.59
2022-08-16T17:56:32.303Z,100966.56
2022-08-16T17:59:01.959Z,100961.19
2022-08-16T18:01:30.721Z,100966.78
2022-08-16T18:04:07.035Z,100966.25
2022-08-16T18:06:39.677Z,100962.91
2022-08-16T18:09:08.976Z,100958.84
2022-08-16T18:11:41.198Z,100959.13
2022-08-16T18:14:13.190Z,100969.25
2022-08-16T18:16:43.132Z,100972.31
2022-08-16T18:19:12.085Z,100984.19
2022-08-16T18:21:59.950Z,100981.72
2022-08-16T18:24:29.717Z,100984.63
2022-08-16T18:27:01.370Z,100994.59
2022-08-16T18:29:32.178Z,100999.41
2022-08-16T18:32:04.593Z,101000.63
2022-08-16T18:34:33.585Z,101004.56
2022-08-16T18:37:02.185Z,101006.66
2022-08-16T18:39:32.037Z,101001.56
2022-08-16T18:42:08.946Z,101000.84
2022-08-16T18:44:42.456Z,100993.81
2022-08-16T18:47:14.259Z,101001.94
2022-08-16T18:49:42.942Z,100999.44
2022-08-16T18:52:15.258Z,100999.69
2022-08-16T18:55:01.586Z,101008.91
2022-08-16T18:57:32.758Z,101001.06
2022-08-16T19:00:01.250Z,101009.34
2022-08-16T19:02:57.429Z,101014.91
2022-08-16T19:05:27.009Z,101008.00
2022-08-16T19:07:56.450Z,101010.91
2022-08-16T19:10:24.868Z,101011.09
2022-08-16T19:12:53.940Z,101019.38
2022-08-16T19:15:26.371Z,101010.66
2022-08-16T19:17:55.328Z,101017.16
2022-08-16T19:20:26.867Z,101020.06
2022-08-16T19:23:05.245Z,101017.50
2022-08-16T19:25:46.735Z,101021.09
2022-08-16T19:28:50.784Z,101031.19
2022-08-16T19:31:33.596Z,101037.63
2022-08-16T19:34:04.235Z,101043.13
2022-08-16T19:36:36.900Z,101040.53
2022-08-16T19:39:11.957Z,101039.78
2022-08-16T19:41:46.527Z,101042.66
2022-08-16T19:44:22.777Z,101047.28
2022-08-16T19:46:51.520Z,101047.50
2022-08-16T19:49:19.845Z,101058.28
2022-08-16T19:51:48.509Z,101070.00
2022-08-16T19:54:17.024Z,101065.66
2022-08-16T19:56:45.408Z,101063.97
2022-08-16T19:59:20.050Z,101073.00
2022-08-16T20:01:52.450Z,101066.00
2022-08-16T20:06:52.571Z,101072.38
2022-08-16T20:09:24.686Z,101063.53
2022-08-16T20:11:54.202Z,101068.16
2022-08-16T20:14:25.435Z,101070.94
2022-08-16T20:16:58.213Z,101078.13
2022-08-16T20:19:28.947Z,101077.25
2022-08-16T20:22:01.771Z,101085.34
2022-08-16T20:24:35.155Z,101088.16
2022-08-16T20:27:06.634Z,101086.41
2022-08-16T20:29:35.995Z,101083.78
2022-08-16T20:32:06.791Z,101090.16
2022-08-16T20:34:35.413Z,101079.50
2022-08-16T20:37:06.145Z,101084.91
2022-08-16T20:39:34.679Z,101085.81
2022-08-16T20:42:03.123Z,101088.59
2022-08-16T20:44:31.782Z,101094.94
2022-08-16T20:47:00.345Z,101088.84
2022-08-16T20:49:29.117Z,101102.34
2022-08-16T20:51:59.747Z,101098.84
2022-08-16T20:54:31.198Z,101107.88
2022-08-16T20:57:00.414Z,101111.56
2022-08-16T20:59:29.117Z,101110.75
2022-08-16T21:01:58.228Z,101113.50
2022-08-16T21:04:28.866Z,101129.72
2022-08-16T21:06:59.437Z,101122.69
2022-08-16T21:09:33.650Z,101120.00
2022-08-16T21:12:05.154Z,101121.06
2022-08-16T21:14:35.542Z,101117.63
2022-08-16T21:17:06.949Z,101116.75
2022-08-16T21:19:36.251Z,101115.06
2022-08-16T21:22:17.514Z,101124.97
2022-08-16T21:24:47.101Z,101125.91
2022-08-16T21:27:17.409Z,101135.69
2022-08-16T21:29:46.881Z,101139.25
2022-08-16T21:32:20.223Z,101128.53
2022-08-16T21:35:09.875Z,101130.34
2022-08-16T21:37:38.893Z,101130.34
2022-08-16T21:40:09.065Z,101137.53
2022-08-16T21:42:39.881Z,101134.97
2022-08-16T21:45:12.376Z,101134.25
2022-08-16T21:47:41.401Z,101137.94
2022-08-16T21:50:11.135Z,101139.84
2022-08-16T21:52:40.253Z,101150.63
2022-08-16T21:55:11.002Z,101137.28
2022-08-16T21:57:39.466Z,101146.25
2022-08-16T22:00:14.453Z,101147.13
2022-08-16T22:02:44.097Z,101148.03
2022-08-16T22:05:14.069Z,101143.66
2022-08-16T22:07:42.585Z,101146.44
2022-08-16T22:11:06.872Z,101147.41
2022-08-16T22:12:59.860Z,101145.75
2022-08-16T22:15:34.232Z,101149.34
2022-08-16T22:18:06.834Z,101149.34
2022-08-16T22:20:35.201Z,101158.34
2022-08-16T22:23:15.533Z,101160.06
2022-08-16T22:25:46.321Z,101152.84
2022-08-16T22:28:15.351Z,101161.69
2022-08-16T22:30:44.571Z,101156.34
2022-08-16T22:33:22.199Z,101153.78
2022-08-16T22:35:58.283Z,101154.84
2022-08-16T22:38:54.577Z,101143.41
2022-08-16T22:41:18.889Z,101136.41
2022-08-16T22:43:50.374Z,101140.03
2022-08-16T22:46:19.675Z,101135.69
2022-08-16T22:48:50.563Z,101139.34
2022-08-16T22:51:21.025Z,101132.28
2022-08-16T22:53:50.277Z,101133.28
2022-08-16T22:56:18.887Z,101136.94
2022-08-16T22:58:48.736Z,101142.41
2022-08-16T23:01:19.110Z,101141.63
2022-08-16T23:03:48.557Z,101150.59
2022-08-16T23:06:17.754Z,101139.97
2022-08-16T23:08:46.100Z,101136.47
2022-08-16T23:11:22.575Z,101141.00
2022-08-16T23:13:54.543Z,101141.00
2022-08-16T23:16:32.796Z,101144.56
2022-08-16T23:19:08.554Z,101151.72
2022-08-16T23:21:39.440Z,101149.91
2022-08-16T23:24:09.397Z,101143.56
2022-08-16T23:26:45.900Z,101149.78
2022-08-16T23:29:23.535Z,101149.78
2022-08-16T23:32:10.711Z,101159.59
2022-08-16T23:34:39.463Z,101154.34
2022-08-16T23:37:07.757Z,101157.06
2022-08-16T23:39:36.186Z,101150.91
2022-08-16T23:42:14.518Z,101140.22
2022-08-16T23:44:58.045Z,101137.59
2022-08-16T23:47:27.662Z,101137.56
2022-08-16T23:50:03.574Z,101143.81
2022-08-16T23:52:53.944Z,101137.69
2022-08-16T23:55:21.550Z,101135.13
2022-08-16T23:57:50.299Z,101136.88
